createdAt,value
2023-05-20T00:00:53.557Z,469.00
2023-05-20T00:01:53.587Z,469.00
2023-05-20T00:02:53.641Z,466.00
2023-05-20T00:03:53.783Z,466.00
2023-05-20T00:04:53.616Z,466.00
2023-05-20T00:05:53.602Z,467.00
2023-05-20T00:06:53.640Z,467.00
2023-05-20T00:07:53.636Z,465.00
2023-05-20T00:08:53.675Z,465.00
2023-05-20T00:09:53.696Z,466.00
2023-05-20T00:10:53.715Z,465.00
2023-05-20T00:11:53.729Z,464.00
2023-05-20T00:12:53.706Z,463.00
2023-05-20T00:13:53.743Z,464.00
2023-05-20T00:14:54.598Z,466.00
2023-05-20T00:15:53.761Z,468.00
2023-05-20T00:16:53.883Z,471.00
2023-05-20T00:17:53.829Z,472.00
2023-05-20T00:18:53.907Z,475.00
2023-05-20T00:19:53.821Z,476.00
2023-05-20T00:20:53.851Z,475.00
2023-05-20T00:21:53.907Z,474.00
2023-05-20T00:22:53.906Z,474.00
2023-05-20T00:23:53.928Z,477.00
2023-05-20T00:24:53.932Z,479.00
2023-05-20T00:25:53.946Z,478.00
2023-05-20T00:26:53.934Z,476.00
2023-05-20T00:27:53.947Z,473.00
2023-05-20T00:28:53.961Z,474.00
2023-05-20T00:29:54.020Z,475.00
2023-05-20T00:30:54.021Z,476.00
2023-05-20T00:31:54.067Z,473.00
2023-05-20T00:32:54.113Z,474.00
2023-05-20T00:33:54.142Z,474.00
2023-05-20T00:34:54.098Z,473.00
2023-05-20T00:35:54.131Z,472.00
2023-05-20T00:36:54.164Z,471.00
2023-05-20T00:37:54.179Z,472.00
2023-05-20T00:38:54.190Z,471.00
2023-05-20T00:39:54.186Z,471.00
2023-05-20T00:40:54.191Z,470.00
2023-05-20T00:41:54.266Z,470.00
2023-05-20T00:42:54.250Z,471.00
2023-05-20T00:43:54.261Z,471.00
2023-05-20T00:44:54.287Z,473.00
2023-05-20T00:45:54.430Z,473.00
2023-05-20T00:46:54.329Z,472.00
2023-05-20T00:47:54.490Z,472.00
2023-05-20T00:48:54.360Z,472.00
2023-05-20T00:49:54.411Z,472.00
2023-05-20T00:50:54.384Z,471.00
2023-05-20T00:51:54.424Z,471.00
2023-05-20T00:52:54.860Z,471.00
2023-05-20T00:53:54.432Z,471.00
2023-05-20T00:54:54.430Z,471.00
2023-05-20T00:55:54.434Z,471.00
2023-05-20T00:56:54.433Z,471.00
2023-05-20T00:57:54.510Z,470.00
2023-05-20T00:58:54.464Z,473.00
2023-05-20T00:59:54.503Z,473.00
2023-05-20T01:00:54.531Z,473.00
2023-05-20T01:01:54.562Z,470.00
2023-05-20T01:02:54.721Z,469.00
2023-05-20T01:03:54.634Z,469.00
2023-05-20T01:04:54.617Z,467.00
2023-05-20T01:05:54.596Z,468.00
2023-05-20T01:06:54.640Z,469.00
2023-05-20T01:07:54.697Z,470.00
2023-05-20T01:08:54.644Z,469.00
2023-05-20T01:09:54.674Z,471.00
2023-05-20T01:10:54.694Z,473.00
2023-05-20T01:11:54.703Z,473.00
2023-05-20T01:12:54.754Z,474.00
2023-05-20T01:13:54.769Z,473.00
2023-05-20T01:14:54.749Z,474.00
2023-05-20T01:15:54.882Z,472.00
2023-05-20T01:16:54.846Z,472.00
2023-05-20T01:17:54.853Z,472.00
2023-05-20T01:18:54.864Z,473.00
2023-05-20T01:19:54.858Z,473.00
2023-05-20T01:20:54.865Z,471.00
2023-05-20T01:21:54.923Z,472.00
2023-05-20T01:22:54.898Z,473.00
2023-05-20T01:23:54.905Z,472.00
2023-05-20T01:24:54.974Z,471.00
2023-05-20T01:25:54.950Z,472.00
2023-05-20T01:26:54.939Z,472.00
2023-05-20T01:27:54.968Z,473.00
2023-05-20T01:28:54.979Z,472.00
2023-05-20T01:29:54.986Z,472.00
2023-05-20T01:30:55.032Z,471.00
2023-05-20T01:31:55.181Z,470.00
2023-05-20T01:32:55.557Z,471.00
2023-05-20T01:33:55.071Z,471.00
2023-05-20T01:34:55.139Z,469.00
2023-05-20T01:35:55.060Z,467.00
2023-05-20T01:36:55.082Z,467.00
2023-05-20T01:37:55.116Z,470.00
2023-05-20T01:38:55.111Z,470.00
2023-05-20T01:39:55.117Z,471.00
2023-05-20T01:40:55.180Z,469.00
2023-05-20T01:41:55.186Z,467.00
2023-05-20T01:42:55.250Z,465.00
2023-05-20T01:43:55.235Z,467.00
2023-05-20T01:44:55.235Z,469.00
2023-05-20T01:45:55.252Z,473.00
2023-05-20T01:46:55.260Z,475.00
2023-05-20T01:47:55.322Z,476.00
2023-05-20T01:48:55.295Z,476.00
2023-05-20T01:49:55.305Z,478.00
2023-05-20T01:50:55.332Z,478.00
2023-05-20T01:51:55.347Z,477.00
2023-05-20T01:52:55.346Z,477.00
2023-05-20T01:53:55.357Z,475.00
2023-05-20T01:54:55.416Z,475.00
2023-05-20T01:55:55.412Z,472.00
2023-05-20T01:56:55.418Z,473.00
2023-05-20T01:57:55.430Z,473.00
2023-05-20T01:58:55.432Z,473.00
2023-05-20T01:59:55.470Z,474.00
2023-05-20T02:00:55.565Z,475.00
2023-05-20T02:01:55.526Z,474.00
2023-05-20T02:02:55.573Z,475.00
2023-05-20T02:03:55.532Z,478.00
2023-05-20T02:04:55.530Z,477.00
2023-05-20T02:05:55.656Z,476.00
2023-05-20T02:06:55.578Z,477.00
2023-05-20T02:07:55.588Z,476.00
2023-05-20T02:08:55.605Z,477.00
2023-05-20T02:09:55.663Z,475.00
2023-05-20T02:10:55.672Z,476.00
2023-05-20T02:11:55.688Z,476.00
2023-05-20T02:12:55.733Z,476.00
2023-05-20T02:13:55.737Z,477.00
2023-05-20T02:14:55.745Z,477.00
2023-05-20T02:15:55.794Z,478.00
2023-05-20T02:16:55.867Z,479.00
2023-05-20T02:17:55.862Z,480.00
2023-05-20T02:18:55.879Z,480.00
2023-05-20T02:19:55.818Z,479.00
2023-05-20T02:20:55.849Z,480.00
2023-05-20T02:21:55.859Z,479.00
2023-05-20T02:22:55.913Z,482.00
2023-05-20T02:23:55.918Z,481.00
2023-05-20T02:24:55.911Z,480.00
2023-05-20T02:25:55.923Z,477.00
2023-05-20T02:26:55.964Z,478.00
2023-05-20T02:27:56.384Z,478.00
2023-05-20T02:28:56.031Z,477.00
2023-05-20T02:29:56.053Z,476.00
2023-05-20T02:30:56.084Z,477.00
2023-05-20T02:31:56.077Z,477.00
2023-05-20T02:32:56.176Z,477.00
2023-05-20T02:33:56.155Z,475.00
2023-05-20T02:34:56.133Z,474.00
2023-05-20T02:35:56.148Z,478.00
2023-05-20T02:36:56.160Z,479.00
2023-05-20T02:37:56.217Z,479.00
2023-05-20T02:38:56.221Z,479.00
2023-05-20T02:39:56.248Z,481.00
2023-05-20T02:40:56.241Z,481.00
2023-05-20T02:41:56.279Z,482.00
2023-05-20T02:42:56.288Z,482.00
2023-05-20T02:43:56.315Z,481.00
2023-05-20T02:44:56.330Z,479.00
2023-05-20T02:45:56.389Z,477.00
2023-05-20T02:46:56.372Z,475.00
2023-05-20T02:47:56.396Z,475.00
2023-05-20T02:48:56.400Z,476.00
2023-05-20T02:49:56.420Z,474.00
2023-05-20T02:50:56.434Z,472.00
2023-05-20T02:51:56.480Z,475.00
2023-05-20T02:52:56.515Z,476.00
2023-05-20T02:53:56.524Z,473.00
2023-05-20T02:54:56.530Z,473.00
2023-05-20T02:55:56.525Z,472.00
2023-05-20T02:56:56.552Z,474.00
2023-05-20T02:57:56.632Z,477.00
2023-05-20T02:58:56.618Z,476.00
2023-05-20T02:59:56.626Z,474.00
2023-05-20T03:00:56.639Z,476.00
2023-05-20T03:01:56.705Z,477.00
2023-05-20T03:02:56.740Z,479.00
2023-05-20T03:03:56.768Z,480.00
2023-05-20T03:04:56.810Z,478.00
2023-05-20T03:05:56.776Z,478.00
2023-05-20T03:06:56.776Z,478.00
2023-05-20T03:07:56.828Z,481.00
2023-05-20T03:08:56.843Z,480.00
2023-05-20T03:09:56.862Z,481.00
2023-05-20T03:10:56.890Z,480.00
2023-05-20T03:11:56.887Z,481.00
2023-05-20T03:12:56.895Z,480.00
2023-05-20T03:13:56.939Z,481.00
2023-05-20T03:14:56.941Z,479.00
2023-05-20T03:15:56.957Z,479.00
2023-05-20T03:16:57.003Z,479.00
2023-05-20T03:17:57.088Z,478.00
2023-05-20T03:18:57.058Z,479.00
2023-05-20T03:19:57.073Z,477.00
2023-05-20T03:20:57.054Z,479.00
2023-05-20T03:21:57.133Z,479.00
2023-05-20T03:22:57.146Z,480.00
2023-05-20T03:23:57.126Z,480.00
2023-05-20T03:24:57.164Z,481.00
2023-05-20T03:25:57.185Z,483.00
2023-05-20T03:26:57.179Z,481.00
2023-05-20T03:27:57.232Z,481.00
2023-05-20T03:28:57.248Z,480.00
2023-05-20T03:29:57.284Z,479.00
2023-05-20T03:30:57.305Z,479.00
2023-05-20T03:31:57.281Z,479.00
2023-05-20T03:32:57.352Z,480.00
2023-05-20T03:33:57.328Z,479.00
2023-05-20T03:34:57.356Z,477.00
2023-05-20T03:35:57.359Z,480.00
2023-05-20T03:36:57.399Z,482.00
2023-05-20T03:37:57.398Z,482.00
2023-05-20T03:38:57.453Z,481.00
2023-05-20T03:39:57.452Z,479.00
2023-05-20T03:40:57.483Z,479.00
2023-05-20T03:41:57.491Z,480.00
2023-05-20T03:42:57.535Z,480.00
2023-05-20T03:43:57.548Z,480.00
2023-05-20T03:44:57.551Z,480.00
2023-05-20T03:45:57.581Z,481.00
2023-05-20T03:46:57.667Z,478.00
2023-05-20T03:47:57.676Z,477.00
2023-05-20T03:48:57.635Z,478.00
2023-05-20T03:49:57.660Z,477.00
2023-05-20T03:50:57.698Z,477.00
2023-05-20T03:51:57.679Z,477.00
2023-05-20T03:52:57.696Z,478.00
2023-05-20T03:53:57.739Z,477.00
2023-05-20T03:54:57.732Z,477.00
2023-05-20T03:55:57.750Z,479.00
2023-05-20T03:56:57.775Z,478.00
2023-05-20T03:57:57.823Z,479.00
2023-05-20T03:58:57.796Z,480.00
2023-05-20T03:59:57.829Z,480.00
2023-05-20T04:00:57.890Z,480.00
2023-05-20T04:01:57.916Z,481.00
2023-05-20T04:02:57.993Z,481.00
2023-05-20T04:03:57.938Z,483.00
2023-05-20T04:04:57.934Z,483.00
2023-05-20T04:05:58.004Z,482.00
2023-05-20T04:06:57.996Z,480.00
2023-05-20T04:07:58.022Z,480.00
2023-05-20T04:08:58.021Z,479.00
2023-05-20T04:09:58.033Z,480.00
2023-05-20T04:10:58.099Z,480.00
2023-05-20T04:11:58.116Z,480.00
2023-05-20T04:12:58.123Z,481.00
2023-05-20T04:13:58.125Z,480.00
2023-05-20T04:14:58.175Z,481.00
2023-05-20T04:15:58.200Z,483.00
2023-05-20T04:16:58.353Z,481.00
2023-05-20T04:17:58.324Z,481.00
2023-05-20T04:18:58.273Z,482.00
2023-05-20T04:19:58.253Z,485.00
2023-05-20T04:20:58.286Z,482.00
2023-05-20T04:21:58.316Z,484.00
2023-05-20T04:22:58.330Z,484.00
2023-05-20T04:23:58.327Z,484.00
2023-05-20T04:24:58.381Z,482.00
2023-05-20T04:25:58.384Z,481.00
2023-05-20T04:26:58.422Z,482.00
2023-05-20T04:27:58.461Z,483.00
2023-05-20T04:28:58.464Z,484.00
2023-05-20T04:29:58.464Z,482.00
2023-05-20T04:30:58.537Z,485.00
2023-05-20T04:31:58.583Z,485.00
2023-05-20T04:32:58.557Z,487.00
2023-05-20T04:33:58.581Z,487.00
2023-05-20T04:34:58.616Z,489.00
2023-05-20T04:35:58.671Z,487.00
2023-05-20T04:36:58.659Z,486.00
2023-05-20T04:37:58.677Z,488.00
2023-05-20T04:38:58.697Z,489.00
2023-05-20T04:39:58.703Z,487.00
2023-05-20T04:40:58.704Z,487.00
2023-05-20T04:41:58.750Z,487.00
2023-05-20T04:42:58.790Z,488.00
2023-05-20T04:43:58.791Z,490.00
2023-05-20T04:44:58.830Z,491.00
2023-05-20T04:45:58.872Z,491.00
2023-05-20T04:46:58.861Z,491.00
2023-05-20T04:47:58.922Z,491.00
2023-05-20T04:48:58.878Z,491.00
2023-05-20T04:49:58.922Z,491.00
2023-05-20T04:50:58.941Z,493.00
2023-05-20T04:51:58.997Z,493.00
2023-05-20T04:52:59.047Z,492.00
2023-05-20T04:53:59.136Z,490.00
2023-05-20T04:54:59.029Z,488.00
2023-05-20T04:55:59.077Z,486.00
2023-05-20T04:56:59.088Z,486.00
2023-05-20T04:57:59.188Z,489.00
2023-05-20T04:58:59.148Z,487.00
2023-05-20T04:59:59.195Z,486.00
2023-05-20T05:00:59.207Z,486.00
2023-05-20T05:01:59.222Z,487.00
2023-05-20T05:02:59.275Z,487.00
2023-05-20T05:03:59.284Z,486.00
2023-05-20T05:04:59.318Z,487.00
2023-05-20T05:05:59.285Z,488.00
2023-05-20T05:06:59.316Z,491.00
2023-05-20T05:07:59.349Z,493.00
2023-05-20T05:08:59.329Z,495.00
2023-05-20T05:09:59.420Z,495.00
2023-05-20T05:10:59.401Z,495.00
2023-05-20T05:11:59.426Z,494.00
2023-05-20T05:12:59.436Z,492.00
2023-05-20T05:13:59.442Z,491.00
2023-05-20T05:14:59.526Z,490.00
2023-05-20T05:15:59.521Z,489.00
2023-05-20T05:16:59.536Z,489.00
2023-05-20T05:17:59.574Z,490.00
2023-05-20T05:18:59.635Z,492.00
2023-05-20T05:19:59.595Z,494.00
2023-05-20T05:20:59.594Z,493.00
2023-05-20T05:21:59.656Z,494.00
2023-05-20T05:22:59.681Z,496.00
2023-05-20T05:23:59.684Z,495.00
2023-05-20T05:24:59.698Z,493.00
2023-05-20T05:25:59.736Z,494.00
2023-05-20T05:26:59.713Z,495.00
2023-05-20T05:27:59.785Z,495.00
2023-05-20T05:28:59.763Z,496.00
2023-05-20T05:29:59.825Z,497.00
2023-05-20T05:30:59.797Z,498.00
2023-05-20T05:31:59.899Z,498.00
2023-05-20T05:32:59.947Z,498.00
2023-05-20T05:33:59.903Z,499.00
2023-05-20T05:34:59.895Z,498.00
2023-05-20T05:35:59.900Z,497.00
2023-05-20T05:36:59.959Z,496.00
2023-05-20T05:38:00.475Z,495.00
2023-05-20T05:38:59.983Z,495.00
2023-05-20T05:40:00.052Z,493.00
2023-05-20T05:41:00.036Z,494.00
2023-05-20T05:42:00.055Z,493.00
2023-05-20T05:43:00.194Z,492.00
2023-05-20T05:44:00.059Z,490.00
2023-05-20T05:45:00.097Z,490.00
2023-05-20T05:46:00.117Z,491.00
2023-05-20T05:47:00.184Z,491.00
2023-05-20T05:48:00.252Z,490.00
2023-05-20T05:49:00.201Z,490.00
2023-05-20T05:50:00.411Z,490.00
2023-05-20T05:51:00.264Z,489.00
2023-05-20T05:52:00.234Z,486.00
2023-05-20T05:53:00.269Z,488.00
2023-05-20T05:54:00.292Z,487.00
2023-05-20T05:55:00.315Z,488.00
2023-05-20T05:56:00.327Z,489.00
2023-05-20T05:57:00.364Z,490.00
2023-05-20T05:58:00.361Z,490.00
2023-05-20T05:59:00.425Z,490.00
2023-05-20T06:00:00.454Z,489.00
2023-05-20T06:01:00.497Z,490.00
2023-05-20T06:02:00.530Z,489.00
2023-05-20T06:03:00.604Z,488.00
2023-05-20T06:04:00.648Z,488.00
2023-05-20T06:05:00.536Z,489.00
2023-05-20T06:06:00.541Z,486.00
2023-05-20T06:07:00.551Z,485.00
2023-05-20T06:08:00.595Z,482.00
2023-05-20T06:09:00.618Z,481.00
2023-05-20T06:10:00.634Z,484.00
2023-05-20T06:11:00.646Z,484.00
2023-05-20T06:12:00.680Z,486.00
2023-05-20T06:13:00.700Z,485.00
2023-05-20T06:14:00.731Z,486.00
2023-05-20T06:15:00.688Z,487.00
2023-05-20T06:16:00.745Z,485.00
2023-05-20T06:17:00.834Z,487.00
2023-05-20T06:18:00.866Z,489.00
2023-05-20T06:19:03.366Z,489.00
2023-05-20T06:20:00.795Z,488.00
2023-05-20T06:21:00.775Z,486.00
2023-05-20T06:22:00.789Z,485.00
2023-05-20T06:23:00.825Z,483.00
2023-05-20T06:24:00.748Z,481.00
2023-05-20T06:25:00.788Z,481.00
2023-05-20T06:26:00.755Z,481.00
2023-05-20T06:27:00.745Z,484.00
2023-05-20T06:28:00.725Z,487.00
2023-05-20T06:29:00.982Z,489.00
2023-05-20T06:30:00.716Z,490.00
2023-05-20T06:31:00.761Z,491.00
2023-05-20T06:32:00.729Z,490.00
2023-05-20T06:33:00.732Z,489.00
2023-05-20T06:34:00.696Z,490.00
2023-05-20T06:35:00.661Z,489.00
2023-05-20T06:36:00.689Z,488.00
2023-05-20T06:37:00.692Z,487.00
2023-05-20T06:38:00.679Z,489.00
2023-05-20T06:39:00.650Z,490.00
2023-05-20T06:40:00.676Z,492.00
2023-05-20T06:41:00.655Z,492.00
2023-05-20T06:42:00.667Z,492.00
2023-05-20T06:43:00.614Z,492.00
2023-05-20T06:44:00.633Z,492.00
2023-05-20T06:45:00.639Z,493.00
2023-05-20T06:46:00.759Z,496.00
2023-05-20T06:47:00.597Z,496.00
2023-05-20T06:48:00.667Z,498.00
2023-05-20T06:49:00.584Z,499.00
2023-05-20T06:50:00.612Z,497.00
2023-05-20T06:51:00.624Z,499.00
2023-05-20T06:52:00.589Z,500.00
2023-05-20T06:53:00.596Z,501.00
2023-05-20T06:54:00.581Z,499.00
2023-05-20T06:55:00.556Z,495.00
2023-05-20T06:56:00.559Z,494.00
2023-05-20T06:57:00.550Z,493.00
2023-05-20T06:58:00.596Z,490.00
2023-05-20T06:59:00.966Z,492.00
2023-05-20T07:00:00.540Z,492.00
2023-05-20T07:01:00.503Z,494.00
2023-05-20T07:02:00.535Z,494.00
2023-05-20T07:03:00.593Z,493.00
2023-05-20T07:04:00.508Z,494.00
2023-05-20T07:05:00.499Z,496.00
2023-05-20T07:06:00.463Z,496.00
2023-05-20T07:07:00.484Z,494.00
2023-05-20T07:08:00.562Z,495.00
2023-05-20T07:09:00.442Z,493.00
2023-05-20T07:10:00.514Z,491.00
2023-05-20T07:11:00.445Z,492.00
2023-05-20T07:12:00.432Z,490.00
2023-05-20T07:13:00.414Z,490.00
2023-05-20T07:14:00.476Z,493.00
2023-05-20T07:15:00.433Z,493.00
2023-05-20T07:16:00.496Z,493.00
2023-05-20T07:17:00.419Z,493.00
2023-05-20T07:18:00.392Z,493.00
2023-05-20T07:19:00.416Z,492.00
2023-05-20T07:20:00.401Z,494.00
2023-05-20T07:21:00.387Z,494.00
2023-05-20T07:22:00.373Z,493.00
2023-05-20T07:23:00.393Z,490.00
2023-05-20T07:24:00.390Z,490.00
2023-05-20T07:25:00.340Z,489.00
2023-05-20T07:26:00.326Z,491.00
2023-05-20T07:27:00.309Z,489.00
2023-05-20T07:28:00.324Z,488.00
2023-05-20T07:29:00.348Z,488.00
2023-05-20T07:30:00.331Z,487.00
2023-05-20T07:31:00.337Z,488.00
2023-05-20T07:32:00.461Z,488.00
2023-05-20T07:33:00.368Z,490.00
2023-05-20T07:34:00.294Z,491.00
2023-05-20T07:35:00.292Z,492.00
2023-05-20T07:36:00.263Z,490.00
2023-05-20T07:37:00.278Z,490.00
2023-05-20T07:38:00.286Z,488.00
2023-05-20T07:39:04.004Z,489.00
2023-05-20T07:40:01.266Z,490.00
2023-05-20T07:41:00.258Z,490.00
2023-05-20T07:42:00.244Z,489.00
2023-05-20T07:43:00.266Z,491.00
2023-05-20T07:44:00.231Z,488.00
2023-05-20T07:45:00.247Z,487.00
2023-05-20T07:46:00.268Z,487.00
2023-05-20T07:47:00.236Z,488.00
2023-05-20T07:48:00.266Z,488.00
2023-05-20T07:49:00.235Z,488.00
2023-05-20T07:50:00.225Z,485.00
2023-05-20T07:51:00.191Z,482.00
2023-05-20T07:52:02.071Z,484.00
2023-05-20T07:53:00.167Z,483.00
2023-05-20T07:54:00.500Z,481.00
2023-05-20T07:55:00.193Z,481.00
2023-05-20T07:56:00.213Z,481.00
2023-05-20T07:57:00.144Z,478.00
2023-05-20T07:58:00.158Z,480.00
2023-05-20T07:59:00.705Z,483.00
2023-05-20T08:00:00.126Z,482.00
2023-05-20T08:01:00.140Z,482.00
2023-05-20T08:02:00.164Z,480.00
2023-05-20T08:03:00.230Z,481.00
2023-05-20T08:04:00.278Z,482.00
2023-05-20T08:05:00.123Z,482.00
2023-05-20T08:06:00.116Z,483.00
2023-05-20T08:07:00.099Z,485.00
2023-05-20T08:08:00.100Z,488.00
2023-05-20T08:09:00.045Z,487.00
2023-05-20T08:10:00.169Z,488.00
2023-05-20T08:11:00.034Z,488.00
2023-05-20T08:12:00.081Z,486.00
2023-05-20T08:13:00.025Z,487.00
2023-05-20T08:14:00.058Z,487.00
2023-05-20T08:15:00.059Z,485.00
2023-05-20T08:16:00.031Z,485.00
2023-05-20T08:17:00.106Z,481.00
2023-05-20T08:18:00.137Z,479.00
2023-05-20T08:19:00.163Z,478.00
2023-05-20T08:19:59.998Z,479.00
2023-05-20T08:20:59.978Z,479.00
2023-05-20T08:21:59.993Z,480.00
2023-05-20T08:23:00.001Z,482.00
2023-05-20T08:23:59.993Z,482.00
2023-05-20T08:24:59.984Z,481.00
2023-05-20T08:25:59.950Z,480.00
2023-05-20T08:26:59.954Z,479.00
2023-05-20T08:27:59.955Z,476.00
2023-05-20T08:28:59.925Z,478.00
2023-05-20T08:30:00.834Z,479.00
2023-05-20T08:30:59.960Z,478.00
2023-05-20T08:31:59.924Z,480.00
2023-05-20T08:32:59.919Z,479.00
2023-05-20T08:34:00.030Z,477.00
2023-05-20T08:34:59.906Z,477.00
2023-05-20T08:35:59.903Z,474.00
2023-05-20T08:36:59.871Z,473.00
2023-05-20T08:37:59.875Z,473.00
2023-05-20T08:38:59.859Z,474.00
2023-05-20T08:39:59.865Z,476.00
2023-05-20T08:41:01.304Z,476.00
2023-05-20T08:42:00.062Z,477.00
2023-05-20T08:43:00.034Z,478.00
2023-05-20T08:44:00.071Z,479.00
2023-05-20T08:45:00.151Z,479.00
2023-05-20T08:46:00.117Z,477.00
2023-05-20T08:47:00.209Z,477.00
2023-05-20T08:48:00.197Z,477.00
2023-05-20T08:49:00.151Z,476.00
2023-05-20T08:50:00.195Z,477.00
2023-05-20T08:51:00.229Z,477.00
2023-05-20T08:52:00.249Z,477.00
2023-05-20T08:53:00.278Z,476.00
2023-05-20T08:54:00.264Z,475.00
2023-05-20T08:55:00.292Z,477.00
2023-05-20T08:56:01.370Z,478.00
2023-05-20T08:57:00.364Z,478.00
2023-05-20T08:58:00.406Z,479.00
2023-05-20T08:59:00.382Z,481.00
2023-05-20T09:00:00.375Z,482.00
2023-05-20T09:01:00.405Z,481.00
2023-05-20T09:02:00.431Z,481.00
2023-05-20T09:03:01.197Z,482.00
2023-05-20T09:04:00.437Z,480.00
2023-05-20T09:05:00.472Z,478.00
2023-05-20T09:06:00.431Z,479.00
2023-05-20T09:07:00.453Z,481.00
2023-05-20T09:08:00.456Z,480.00
2023-05-20T09:09:00.461Z,480.00
2023-05-20T09:10:00.471Z,484.00
2023-05-20T09:11:00.486Z,483.00
2023-05-20T09:12:00.528Z,482.00
2023-05-20T09:13:00.536Z,481.00
2023-05-20T09:14:00.537Z,480.00
2023-05-20T09:15:00.551Z,481.00
2023-05-20T09:16:00.611Z,480.00
2023-05-20T09:17:00.592Z,480.00
2023-05-20T09:18:00.628Z,481.00
2023-05-20T09:19:01.032Z,481.00
2023-05-20T09:20:00.609Z,479.00
2023-05-20T09:21:00.648Z,479.00
2023-05-20T09:22:00.636Z,479.00
2023-05-20T09:23:00.664Z,478.00
2023-05-20T09:24:00.669Z,475.00
2023-05-20T09:25:00.702Z,473.00
2023-05-20T09:26:00.790Z,474.00
2023-05-20T09:27:00.760Z,476.00
2023-05-20T09:28:00.773Z,476.00
2023-05-20T09:29:00.885Z,475.00
2023-05-20T09:30:00.813Z,473.00
2023-05-20T09:31:00.910Z,472.00
2023-05-20T09:32:01.561Z,473.00
2023-05-20T09:33:00.922Z,473.00
2023-05-20T09:34:00.878Z,471.00
2023-05-20T09:35:00.891Z,471.00
2023-05-20T09:36:00.885Z,470.00
2023-05-20T09:37:00.889Z,470.00
2023-05-20T09:38:00.942Z,470.00
2023-05-20T09:39:00.935Z,473.00
2023-05-20T09:40:00.948Z,472.00
2023-05-20T09:41:00.950Z,471.00
2023-05-20T09:42:03.209Z,472.00
2023-05-20T09:43:00.981Z,474.00
2023-05-20T09:44:00.992Z,473.00
2023-05-20T09:45:01.534Z,472.00
2023-05-20T09:46:01.015Z,473.00
2023-05-20T09:47:00.963Z,475.00
2023-05-20T09:48:00.950Z,475.00
2023-05-20T09:49:00.934Z,477.00
2023-05-20T09:50:00.920Z,477.00
2023-05-20T09:51:00.935Z,477.00
2023-05-20T09:52:00.921Z,478.00
2023-05-20T09:53:00.899Z,476.00
2023-05-20T09:54:01.039Z,476.00
2023-05-20T09:55:00.879Z,473.00
2023-05-20T09:56:00.886Z,471.00
2023-05-20T09:57:00.855Z,472.00
2023-05-20T09:58:00.955Z,474.00
2023-05-20T09:59:00.873Z,474.00
2023-05-20T10:00:00.882Z,475.00
2023-05-20T10:01:00.917Z,472.00
2023-05-20T10:02:00.902Z,469.00
2023-05-20T10:03:00.917Z,471.00
2023-05-20T10:04:00.897Z,473.00
2023-05-20T10:05:00.816Z,475.00
2023-05-20T10:06:00.813Z,475.00
2023-05-20T10:07:00.810Z,473.00
2023-05-20T10:08:00.829Z,475.00
2023-05-20T10:09:00.809Z,476.00
2023-05-20T10:10:00.802Z,476.00
2023-05-20T10:11:00.809Z,476.00
2023-05-20T10:12:00.770Z,477.00
2023-05-20T10:13:00.761Z,479.00
2023-05-20T10:14:00.777Z,479.00
2023-05-20T10:15:00.752Z,479.00
2023-05-20T10:16:00.830Z,480.00
2023-05-20T10:17:00.724Z,477.00
2023-05-20T10:18:00.778Z,475.00
2023-05-20T10:19:00.780Z,474.00
2023-05-20T10:20:00.758Z,473.00
2023-05-20T10:21:00.742Z,473.00
2023-05-20T10:22:00.716Z,473.00
2023-05-20T10:23:00.740Z,474.00
2023-05-20T10:24:02.774Z,475.00
2023-05-20T10:25:00.709Z,475.00
2023-05-20T10:26:00.677Z,476.00
2023-05-20T10:27:00.669Z,477.00
2023-05-20T10:28:00.698Z,477.00
2023-05-20T10:29:00.659Z,476.00
2023-05-20T10:30:00.723Z,474.00
2023-05-20T10:31:00.655Z,473.00
2023-05-20T10:32:00.710Z,475.00
2023-05-20T10:33:00.752Z,477.00
2023-05-20T10:34:00.622Z,477.00
2023-05-20T10:35:00.683Z,477.00
2023-05-20T10:36:00.713Z,476.00
2023-05-20T10:37:00.712Z,474.00
2023-05-20T10:38:00.739Z,474.00
2023-05-20T10:39:00.778Z,473.00
2023-05-20T10:40:00.817Z,472.00
2023-05-20T10:41:00.835Z,472.00
2023-05-20T10:42:00.821Z,473.00
2023-05-20T10:43:00.871Z,472.00
2023-05-20T10:44:00.906Z,472.00
2023-05-20T10:45:00.914Z,471.00
2023-05-20T10:46:01.951Z,469.00
2023-05-20T10:48:02.001Z,471.00
2023-05-20T10:49:01.081Z,468.00
2023-05-20T10:50:00.929Z,470.00
2023-05-20T10:51:00.892Z,468.00
2023-05-20T10:52:00.901Z,469.00
2023-05-20T10:53:00.864Z,468.00
2023-05-20T10:54:00.923Z,468.00
2023-05-20T10:55:00.848Z,469.00
2023-05-20T10:56:00.861Z,471.00
2023-05-20T10:57:00.854Z,470.00
2023-05-20T10:58:00.834Z,469.00
2023-05-20T10:59:00.831Z,471.00
2023-05-20T11:00:00.921Z,474.00
2023-05-20T11:01:00.919Z,471.00
2023-05-20T11:02:00.967Z,471.00
2023-05-20T11:03:01.049Z,471.00
2023-05-20T11:04:01.157Z,469.00
2023-05-20T11:05:01.056Z,471.00
2023-05-20T11:06:01.122Z,471.00
2023-05-20T11:07:01.138Z,470.00
2023-05-20T11:08:01.168Z,471.00
2023-05-20T11:09:01.279Z,474.00
2023-05-20T11:10:01.279Z,475.00
2023-05-20T11:11:01.346Z,475.00
2023-05-20T11:12:01.368Z,475.00
2023-05-20T11:13:01.412Z,475.00
2023-05-20T11:14:01.447Z,474.00
2023-05-20T11:15:01.477Z,474.00
2023-05-20T11:16:01.558Z,476.00
2023-05-20T11:17:01.646Z,476.00
2023-05-20T11:18:01.665Z,475.00
2023-05-20T11:19:01.743Z,475.00
2023-05-20T11:20:01.719Z,474.00
2023-05-20T11:21:01.773Z,474.00
2023-05-20T11:22:01.836Z,474.00
2023-05-20T11:23:01.829Z,472.00
2023-05-20T11:24:01.894Z,472.00
2023-05-20T11:25:01.951Z,473.00
2023-05-20T11:26:01.975Z,471.00
2023-05-20T11:27:01.985Z,470.00
2023-05-20T11:28:02.077Z,469.00
2023-05-20T11:29:02.092Z,468.00
2023-05-20T11:30:02.139Z,469.00
2023-05-20T11:31:02.208Z,468.00
2023-05-20T11:32:02.306Z,471.00
2023-05-20T11:33:02.294Z,466.00
2023-05-20T11:34:02.292Z,467.00
2023-05-20T11:35:02.367Z,467.00
2023-05-20T11:36:03.400Z,467.00
2023-05-20T11:37:02.395Z,469.00
2023-05-20T11:38:02.424Z,468.00
2023-05-20T11:39:02.558Z,469.00
2023-05-20T11:40:02.541Z,470.00
2023-05-20T11:41:02.526Z,468.00
2023-05-20T11:42:02.525Z,466.00
2023-05-20T11:43:02.567Z,466.00
2023-05-20T11:44:02.597Z,465.00
2023-05-20T11:45:02.639Z,465.00
2023-05-20T11:46:02.747Z,467.00
2023-05-20T11:47:02.778Z,466.00
2023-05-20T11:48:02.847Z,466.00
2023-05-20T11:49:02.800Z,465.00
2023-05-20T11:50:02.943Z,467.00
2023-05-20T11:51:02.918Z,467.00
2023-05-20T11:52:02.914Z,466.00
2023-05-20T11:53:02.962Z,466.00
2023-05-20T11:54:03.007Z,466.00
2023-05-20T11:55:03.020Z,467.00
2023-05-20T11:56:03.059Z,470.00
2023-05-20T11:57:04.586Z,471.00
2023-05-20T11:58:03.277Z,470.00
2023-05-20T11:59:03.311Z,471.00
2023-05-20T12:00:03.377Z,471.00
2023-05-20T12:01:13.938Z,475.00
2023-05-20T12:02:04.381Z,475.00
2023-05-20T12:03:03.466Z,475.00
2023-05-20T12:04:03.798Z,474.00
2023-05-20T12:05:03.449Z,473.00
2023-05-20T12:06:03.365Z,473.00
2023-05-20T12:07:03.367Z,472.00
2023-05-20T12:08:03.308Z,471.00
2023-05-20T12:09:03.322Z,472.00
2023-05-20T12:10:03.323Z,475.00
2023-05-20T12:11:03.343Z,476.00
2023-05-20T12:12:03.303Z,477.00
2023-05-20T12:13:03.368Z,476.00
2023-05-20T12:14:03.430Z,475.00
2023-05-20T12:15:03.453Z,474.00
2023-05-20T12:16:03.583Z,473.00
2023-05-20T12:17:03.541Z,471.00
2023-05-20T12:18:03.646Z,471.00
2023-05-20T12:19:03.704Z,472.00
2023-05-20T12:20:03.653Z,473.00
2023-05-20T12:21:03.716Z,470.00
2023-05-20T12:22:03.800Z,473.00
2023-05-20T12:23:03.849Z,473.00
2023-05-20T12:24:04.098Z,473.00
2023-05-20T12:25:03.881Z,472.00
2023-05-20T12:26:03.882Z,472.00
2023-05-20T12:27:03.929Z,469.00
2023-05-20T12:28:03.966Z,471.00
2023-05-20T12:29:05.070Z,471.00
2023-05-20T12:30:04.002Z,473.00